createdAt,value
2023-05-13T00:02:21.601Z,100809.22
2023-05-13T00:04:46.535Z,100802.57
2023-05-13T00:07:12.371Z,100802.44
2023-05-13T00:09:38.380Z,100809.84
2023-05-13T00:10:48.029Z,100806.88
2023-05-13T00:13:11.535Z,100809.59
2023-05-13T00:14:26.300Z,100810.83
2023-05-13T00:15:37.298Z,100811.08
2023-05-13T00:16:46.518Z,100811.33
2023-05-13T00:17:55.528Z,100811.20
2023-05-13T00:20:20.459Z,100812.05
2023-05-13T00:21:30.885Z,100816.11
2023-05-13T00:23:55.120Z,100815.86
2023-05-13T00:26:21.467Z,100816.96
2023-05-13T00:28:49.328Z,100808.84
2023-05-13T00:31:16.214Z,100820.05
2023-05-13T00:32:26.677Z,100820.64
2023-05-13T00:33:36.725Z,100828.03
2023-05-13T00:34:46.225Z,100816.45
2023-05-13T00:37:11.577Z,100823.13
2023-05-13T00:39:36.057Z,100822.99
2023-05-13T00:40:47.051Z,100828.85
2023-05-13T00:43:11.510Z,100810.29
2023-05-13T00:45:38.323Z,100830.22
2023-05-13T00:46:48.453Z,100823.02
2023-05-13T00:47:59.295Z,100825.84
2023-05-13T00:50:25.739Z,100820.09
2023-05-13T00:51:39.497Z,100826.52
2023-05-13T00:52:51.332Z,100828.61
2023-05-13T00:54:01.069Z,100823.02
2023-05-13T00:56:27.944Z,100813.97
2023-05-13T00:58:56.615Z,100818.67
2023-05-13T01:00:08.736Z,100814.82
2023-05-13T01:01:33.439Z,100821.63
2023-05-13T01:04:39.288Z,100815.98
2023-05-13T01:07:42.128Z,100808.70
2023-05-13T01:10:33.137Z,100814.88
2023-05-13T01:11:45.255Z,100818.18
2023-05-13T01:14:27.138Z,100813.73
2023-05-13T01:17:00.350Z,100812.50
2023-05-13T01:19:43.511Z,100814.61
2023-05-13T01:20:53.992Z,100819.24
2023-05-13T01:22:03.282Z,100813.70
2023-05-13T01:23:12.652Z,100818.27
2023-05-13T01:24:22.738Z,100821.83
2023-05-13T01:26:47.302Z,100816.29
2023-05-13T01:29:14.095Z,100816.41
2023-05-13T01:31:40.959Z,100815.27
2023-05-13T01:32:52.818Z,100815.95
2023-05-13T01:34:03.686Z,100818.21
2023-05-13T01:36:30.245Z,100811.00
2023-05-13T01:38:57.171Z,100807.07
2023-05-13T01:41:25.573Z,100810.63
2023-05-13T01:43:52.714Z,100810.15
2023-05-13T01:45:04.160Z,100812.30
2023-05-13T01:46:14.093Z,100810.58
2023-05-13T01:48:38.593Z,100807.83
2023-05-13T01:49:48.481Z,100809.39
2023-05-13T01:52:14.352Z,100806.97
2023-05-13T01:54:37.967Z,100806.36
2023-05-13T01:55:49.396Z,100803.97
2023-05-13T01:58:14.387Z,100804.23
2023-05-13T01:59:24.240Z,100810.36
2023-05-13T02:00:33.967Z,100808.62
2023-05-13T02:03:01.484Z,100805.73
2023-05-13T02:05:25.959Z,100798.58
2023-05-13T02:07:50.655Z,100806.70
2023-05-13T02:10:35.044Z,100812.38
2023-05-13T02:11:46.526Z,100805.46
2023-05-13T02:12:55.507Z,100813.83
2023-05-13T02:15:19.795Z,100809.41
2023-05-13T02:16:29.826Z,100815.87
2023-05-13T02:18:58.615Z,100816.22
2023-05-13T02:21:26.996Z,100816.92
2023-05-13T02:23:51.143Z,100816.80
2023-05-13T02:24:59.797Z,100824.53
2023-05-13T02:27:24.167Z,100811.27
2023-05-13T02:28:33.831Z,100823.11
2023-05-13T02:29:43.603Z,100821.13
2023-05-13T02:30:52.749Z,100826.20
2023-05-13T02:33:17.994Z,100827.88
2023-05-13T02:35:45.666Z,100827.75
2023-05-13T02:36:54.872Z,100826.60
2023-05-13T02:39:20.071Z,100832.55
2023-05-13T02:42:05.636Z,100829.52
2023-05-13T02:43:15.703Z,100840.34
2023-05-13T02:45:44.517Z,100837.89
2023-05-13T02:48:11.530Z,100836.17
2023-05-13T02:55:25.832Z,100846.42
2023-05-13T02:57:50.002Z,100842.47
2023-05-13T02:58:58.802Z,100852.22
2023-05-13T03:01:26.352Z,100843.96
2023-05-13T03:02:36.834Z,100854.42
2023-05-13T03:05:01.728Z,100841.37
2023-05-13T03:07:27.295Z,100852.33
2023-05-13T03:08:36.316Z,100855.27
2023-05-13T03:09:45.865Z,100853.95
2023-05-13T03:12:10.939Z,100853.58
2023-05-13T03:13:21.017Z,100861.92
2023-05-13T03:15:46.248Z,100858.14
2023-05-13T03:16:55.642Z,100854.80
2023-05-13T03:19:20.429Z,100853.95
2023-05-13T03:21:46.450Z,100850.82
2023-05-13T03:24:12.784Z,100850.64
2023-05-13T03:25:23.134Z,100865.04
2023-05-13T03:26:36.008Z,100860.53
2023-05-13T03:27:44.585Z,100864.77
2023-05-13T03:28:54.129Z,100859.06
2023-05-13T03:31:22.420Z,100858.38
2023-05-13T03:33:47.452Z,100860.81
2023-05-13T03:36:13.777Z,100854.39
2023-05-13T03:37:24.658Z,100865.66
2023-05-13T03:39:48.081Z,100848.46
2023-05-13T03:42:12.436Z,100857.77
2023-05-13T03:43:22.641Z,100867.97
2023-05-13T03:44:34.321Z,100868.78
2023-05-13T03:47:00.127Z,100862.98
2023-05-13T03:49:26.528Z,100866.38
2023-05-13T03:50:36.066Z,100864.63
2023-05-13T03:51:46.640Z,100864.37
2023-05-13T03:52:56.733Z,100863.08
2023-05-13T03:55:24.251Z,100865.09
2023-05-13T03:57:50.086Z,100870.48
2023-05-13T04:00:16.956Z,100876.81
2023-05-13T04:02:40.743Z,100876.30
2023-05-13T04:03:49.904Z,100879.78
2023-05-13T04:06:35.701Z,100878.55
2023-05-13T04:09:03.126Z,100883.47
2023-05-13T04:11:28.239Z,100889.73
2023-05-13T04:12:44.845Z,100890.16
2023-05-13T04:13:53.970Z,100887.55
2023-05-13T04:15:03.089Z,100888.20
2023-05-13T04:17:28.862Z,100888.89
2023-05-13T04:19:55.077Z,100882.67
2023-05-13T04:22:25.740Z,100882.37
2023-05-13T04:24:55.580Z,100886.22
2023-05-13T04:26:05.286Z,100892.45
2023-05-13T04:28:29.875Z,100885.42
2023-05-13T04:30:54.204Z,100899.64
2023-05-13T04:32:04.342Z,100895.43
2023-05-13T04:33:14.271Z,100890.13
2023-05-13T04:34:24.811Z,100898.77
2023-05-13T04:35:34.278Z,100894.25
2023-05-13T04:38:00.993Z,100885.24
2023-05-13T04:40:27.085Z,100890.48
2023-05-13T04:42:54.321Z,100894.09
2023-05-13T04:45:22.913Z,100892.11
2023-05-13T04:46:32.669Z,100895.26
2023-05-13T04:48:57.368Z,100891.03
2023-05-13T04:51:23.781Z,100894.65
2023-05-13T04:53:48.754Z,100887.48
2023-05-13T04:56:13.290Z,100885.97
2023-05-13T04:57:22.755Z,100895.70
2023-05-13T04:59:46.855Z,100883.92
2023-05-13T05:02:12.136Z,100882.74
2023-05-13T05:04:38.693Z,100884.84
2023-05-13T05:07:05.471Z,100885.28
2023-05-13T05:08:15.585Z,100886.53
2023-05-13T05:10:39.486Z,100881.71
2023-05-13T05:13:05.900Z,100885.88
2023-05-13T05:15:31.519Z,100889.84
2023-05-13T05:17:57.780Z,100882.80
2023-05-13T05:20:21.834Z,100880.23
2023-05-13T05:22:47.212Z,100893.12
2023-05-13T05:25:13.340Z,100883.39
2023-05-13T05:26:25.504Z,100884.76
2023-05-13T05:27:35.190Z,100890.03
2023-05-13T05:30:10.368Z,100898.79
2023-05-13T05:31:19.930Z,100884.76
2023-05-13T05:32:30.437Z,100903.91
2023-05-13T05:33:41.135Z,100896.73
2023-05-13T05:34:50.273Z,100894.82
2023-05-13T05:36:01.601Z,100894.45
2023-05-13T05:38:28.770Z,100890.28
2023-05-13T05:40:58.898Z,100904.61
2023-05-13T05:43:24.273Z,100902.16
2023-05-13T05:44:35.374Z,100910.08
2023-05-13T05:47:00.535Z,100895.89
2023-05-13T05:49:24.826Z,100900.36
2023-05-13T05:51:50.937Z,100903.70
2023-05-13T05:54:16.129Z,100902.48
2023-05-13T05:56:36.333Z,100899.96
2023-05-13T05:57:46.000Z,100903.55
2023-05-13T06:00:12.934Z,100899.93
2023-05-13T06:01:24.725Z,100912.64
2023-05-13T06:02:35.382Z,100902.25
2023-05-13T06:03:46.707Z,100903.92
2023-05-13T06:06:11.696Z,100904.58
2023-05-13T06:08:35.728Z,100909.48
2023-05-13T06:09:45.941Z,100899.05
2023-05-13T06:12:10.066Z,100904.39
2023-05-13T06:13:18.663Z,100915.27
2023-05-13T06:16:04.377Z,100914.26
2023-05-13T06:18:31.758Z,100903.48
2023-05-13T06:20:58.755Z,100905.59
2023-05-13T06:23:23.156Z,100904.47
2023-05-13T06:25:48.155Z,100904.86
2023-05-13T06:26:56.917Z,100908.33
2023-05-13T06:29:21.274Z,100896.99
2023-05-13T06:31:46.617Z,100904.21
2023-05-13T06:34:12.924Z,100908.80
2023-05-13T06:36:38.660Z,100899.47
2023-05-13T06:39:05.338Z,100902.69
2023-05-13T06:41:31.178Z,100902.13
2023-05-13T06:43:58.983Z,100904.30
2023-05-13T06:46:25.025Z,100905.08
2023-05-13T06:47:36.230Z,100916.16
2023-05-13T06:48:45.680Z,100908.58
2023-05-13T06:51:11.096Z,100914.19
2023-05-13T06:53:34.778Z,100899.83
2023-05-13T06:55:58.540Z,100906.57
2023-05-13T06:58:22.736Z,100906.95
2023-05-13T07:00:46.737Z,100897.91
2023-05-13T07:03:12.417Z,100894.29
2023-05-13T07:05:37.112Z,100900.12
2023-05-13T07:08:03.844Z,100903.16
2023-05-13T07:10:29.578Z,100900.36
2023-05-13T07:11:38.588Z,100903.51
2023-05-13T07:14:02.958Z,100883.38
2023-05-13T07:15:11.634Z,100893.58
2023-05-13T07:16:21.090Z,100895.45
2023-05-13T07:17:31.246Z,100886.45
2023-05-13T07:18:40.669Z,100890.14
2023-05-13T07:19:49.988Z,100890.81
2023-05-13T07:22:14.083Z,100898.34
2023-05-13T07:24:39.051Z,100885.90
2023-05-13T07:27:04.149Z,100888.72
2023-05-13T07:29:28.062Z,100888.39
2023-05-13T07:31:57.277Z,100896.56
2023-05-13T07:34:21.790Z,100890.57
2023-05-13T07:36:47.164Z,100908.92
2023-05-13T07:37:56.437Z,100908.58
2023-05-13T07:40:30.269Z,100890.95
2023-05-13T07:42:54.881Z,100896.83
2023-05-13T07:45:27.807Z,100897.50
2023-05-13T07:47:51.730Z,100902.91
2023-05-13T07:50:17.037Z,100896.12
2023-05-13T07:52:47.466Z,100892.48
2023-05-13T07:55:11.616Z,100895.49
2023-05-13T07:57:37.840Z,100891.94
2023-05-13T08:00:02.956Z,100888.71
2023-05-13T08:02:32.240Z,100887.84
2023-05-13T08:04:57.158Z,100887.33
2023-05-13T08:07:21.329Z,100893.08
2023-05-13T08:10:05.971Z,100886.59
2023-05-13T08:12:31.279Z,100897.73
2023-05-13T08:13:41.733Z,100892.59
2023-05-13T08:16:07.374Z,100912.19
2023-05-13T08:18:36.577Z,100899.30
2023-05-13T08:21:01.416Z,100891.55
2023-05-13T08:23:43.544Z,100891.06
2023-05-13T08:25:58.208Z,100894.48
2023-05-13T08:28:23.593Z,100897.94
2023-05-13T08:30:49.549Z,100896.05
2023-05-13T08:33:13.357Z,100894.67
2023-05-13T08:35:37.437Z,100891.05
2023-05-13T08:38:04.147Z,100878.23
2023-05-13T08:40:28.934Z,100876.67
2023-05-13T08:42:56.080Z,100875.16
2023-05-13T08:45:28.207Z,100867.11
2023-05-13T08:46:39.080Z,100885.95
2023-05-13T08:49:14.588Z,100875.48
2023-05-13T08:50:25.314Z,100872.07
2023-05-13T08:52:53.495Z,100867.95
2023-05-13T08:55:20.324Z,100859.38
2023-05-13T08:57:46.630Z,100852.88
2023-05-13T09:00:13.969Z,100854.24
2023-05-13T09:02:41.340Z,100849.23
2023-05-13T09:05:20.436Z,100855.59
2023-05-13T09:07:47.191Z,100848.92
2023-05-13T09:10:12.575Z,100851.84
2023-05-13T09:12:51.193Z,100842.24
2023-05-13T09:15:24.934Z,100849.60
2023-05-13T09:16:37.057Z,100851.51
2023-05-13T09:19:08.209Z,100834.22
2023-05-13T09:21:35.815Z,100835.55
2023-05-13T09:24:11.454Z,100834.18
2023-05-13T09:26:41.870Z,100833.48
2023-05-13T09:27:58.135Z,100832.28
2023-05-13T09:30:44.573Z,100820.83
2023-05-13T09:33:13.103Z,100818.57
2023-05-13T09:35:50.522Z,100812.42
2023-05-13T09:38:23.755Z,100816.53
2023-05-13T09:40:58.151Z,100809.34
2023-05-13T09:43:34.287Z,100795.63
2023-05-13T09:46:05.000Z,100786.89
2023-05-13T09:48:33.510Z,100788.43
2023-05-13T09:51:00.063Z,100784.14
2023-05-13T09:53:28.150Z,100789.30
2023-05-13T09:55:55.534Z,100779.37
2023-05-13T09:58:24.043Z,100779.00
2023-05-13T10:00:51.341Z,100785.70
2023-05-13T10:03:18.783Z,100775.43
2023-05-13T10:05:43.743Z,100771.49
2023-05-13T10:09:30.673Z,100765.48
2023-05-13T10:11:59.895Z,100767.21
2023-05-13T10:13:11.831Z,100771.31
2023-05-13T10:15:52.420Z,100762.25
2023-05-13T10:18:18.733Z,100762.73
2023-05-13T10:20:43.629Z,100764.38
2023-05-13T10:23:09.341Z,100777.96
2023-05-13T10:25:35.005Z,100763.08
2023-05-13T10:28:03.090Z,100758.62
2023-05-13T10:30:36.657Z,100757.79
2023-05-13T10:33:04.381Z,100755.90
2023-05-13T10:35:32.718Z,100752.30
2023-05-13T10:38:46.299Z,100741.17
2023-05-13T10:42:04.843Z,100745.41
2023-05-13T10:44:37.874Z,100745.59
2023-05-13T10:47:11.812Z,100745.94
2023-05-13T10:49:38.176Z,100745.77
2023-05-13T10:52:14.825Z,100747.30
2023-05-13T10:54:42.714Z,100751.59
2023-05-13T10:57:12.920Z,100746.64
2023-05-13T11:00:00.790Z,100744.03
2023-05-13T11:02:53.166Z,100739.08
2023-05-13T11:05:21.299Z,100744.73
2023-05-13T11:08:11.469Z,100736.32
2023-05-13T11:10:41.329Z,100735.50
2023-05-13T11:13:18.609Z,100733.58
2023-05-13T11:15:47.677Z,100740.40
2023-05-13T11:18:26.518Z,100737.81
2023-05-13T11:20:54.527Z,100729.73
2023-05-13T11:25:18.488Z,100727.89
2023-05-13T11:28:04.239Z,100725.69
2023-05-13T11:30:30.372Z,100722.61
2023-05-13T11:33:10.024Z,100732.22
2023-05-13T11:35:37.016Z,100732.77
2023-05-13T11:38:06.078Z,100732.58
2023-05-13T11:40:37.867Z,100725.02
2023-05-13T11:43:09.160Z,100712.86
2023-05-13T11:45:40.481Z,100716.61
2023-05-13T11:48:23.909Z,100710.30
2023-05-13T11:50:57.625Z,100722.11
2023-05-13T11:53:25.349Z,100711.33
2023-05-13T11:56:10.542Z,100708.41
2023-05-13T11:58:41.288Z,100702.21
2023-05-13T12:01:15.965Z,100696.55
2023-05-13T12:03:49.418Z,100687.80
2023-05-13T12:06:19.089Z,100689.16
2023-05-13T12:08:46.602Z,100684.64
2023-05-13T12:11:14.211Z,100690.92
2023-05-13T12:13:42.761Z,100694.98
2023-05-13T12:16:08.286Z,100685.85
2023-05-13T12:18:34.546Z,100684.41
2023-05-13T12:21:34.130Z,100681.05
2023-05-13T12:24:19.007Z,100682.58
2023-05-13T12:27:09.471Z,100698.69
2023-05-13T12:28:24.369Z,100703.53
2023-05-13T12:29:41.047Z,100700.28
2023-05-13T12:32:11.403Z,100699.73
2023-05-13T12:34:38.637Z,100690.12
2023-05-13T12:37:14.308Z,100687.92
2023-05-13T12:39:42.434Z,100685.36
2023-05-13T12:43:33.821Z,100685.39
2023-05-13T12:44:45.128Z,100685.96
2023-05-13T12:45:54.344Z,100695.03
2023-05-13T12:47:04.957Z,100685.27
2023-05-13T12:48:14.028Z,100688.36
2023-05-13T12:50:39.458Z,100682.36
2023-05-13T12:53:05.793Z,100682.70
2023-05-13T12:55:31.240Z,100683.91
2023-05-13T12:58:04.517Z,100676.38
2023-05-13T13:00:30.850Z,100683.04
2023-05-13T13:02:57.235Z,100668.79
2023-05-13T13:04:07.188Z,100677.92
2023-05-13T13:06:32.044Z,100662.61
2023-05-13T13:08:57.676Z,100666.16
2023-05-13T13:11:22.707Z,100667.87
2023-05-13T13:13:50.188Z,100657.42
2023-05-13T13:16:14.363Z,100663.09
2023-05-13T13:18:40.224Z,100657.94
2023-05-13T13:21:06.813Z,100665.25
2023-05-13T13:23:32.404Z,100662.17
2023-05-13T13:25:58.789Z,100652.77
2023-05-13T13:28:42.889Z,100653.25
2023-05-13T13:31:08.894Z,100654.28
2023-05-13T13:33:34.816Z,100660.64
2023-05-13T13:35:59.679Z,100655.73
2023-05-13T13:38:24.618Z,100656.98
2023-05-13T13:40:50.227Z,100649.56
2023-05-13T13:43:33.702Z,100654.34
2023-05-13T13:46:04.652Z,100658.81
2023-05-13T13:48:28.439Z,100648.20
2023-05-13T13:50:53.253Z,100650.95
2023-05-13T13:53:18.476Z,100646.01
2023-05-13T13:55:43.113Z,100641.00
2023-05-13T13:58:08.514Z,100645.09
2023-05-13T14:00:34.386Z,100642.36
2023-05-13T14:03:02.342Z,100641.33
2023-05-13T14:06:41.167Z,100638.22
2023-05-13T14:09:10.350Z,100644.03
2023-05-13T14:11:36.505Z,100639.35
2023-05-13T14:14:00.977Z,100640.84
2023-05-13T14:16:27.875Z,100641.53
2023-05-13T14:18:52.032Z,100641.87
2023-05-13T14:21:17.613Z,100637.78
2023-05-13T14:23:42.078Z,100637.63
2023-05-13T14:26:09.157Z,100644.55
2023-05-13T14:28:32.918Z,100640.45
2023-05-13T14:30:57.404Z,100642.02
2023-05-13T14:33:22.928Z,100642.06
2023-05-13T14:34:34.012Z,100639.19
2023-05-13T14:36:58.198Z,100640.70
2023-05-13T14:39:24.583Z,100641.40
2023-05-13T14:41:49.305Z,100642.09
2023-05-13T14:44:14.591Z,100642.78
2023-05-13T14:46:40.093Z,100650.72
2023-05-13T14:49:09.868Z,100648.00
2023-05-13T14:51:55.482Z,100662.72
2023-05-13T14:54:19.867Z,100661.22
2023-05-13T14:56:45.028Z,100647.34
2023-05-13T14:59:10.655Z,100640.54
2023-05-13T15:01:38.712Z,100643.94
2023-05-13T15:04:03.014Z,100643.05
2023-05-13T15:06:28.611Z,100633.98
2023-05-13T15:08:54.373Z,100639.97
2023-05-13T15:11:21.254Z,100637.22
2023-05-13T15:13:47.911Z,100632.91
2023-05-13T15:16:13.460Z,100639.42
2023-05-13T15:18:39.098Z,100635.66
2023-05-13T15:21:03.160Z,100630.17
2023-05-13T15:23:32.525Z,100635.12
2023-05-13T15:25:56.447Z,100637.50
2023-05-13T15:28:21.312Z,100640.58
2023-05-13T15:30:46.320Z,100640.91
2023-05-13T15:33:12.914Z,100629.25
2023-05-13T15:35:38.432Z,100638.17
2023-05-13T15:38:03.864Z,100637.30
2023-05-13T15:40:28.649Z,100636.45
2023-05-13T15:42:53.557Z,100636.28
2023-05-13T15:45:17.123Z,100631.81
2023-05-13T15:47:43.132Z,100634.56
2023-05-13T15:50:08.558Z,100629.44
2023-05-13T15:52:33.287Z,100629.95
2023-05-13T15:54:57.724Z,100625.48
2023-05-13T15:57:21.940Z,100627.72
2023-05-13T15:59:46.253Z,100626.03
2023-05-13T16:02:13.020Z,100630.81
2023-05-13T16:04:38.651Z,100629.09
2023-05-13T16:07:06.772Z,100626.54
2023-05-13T16:09:31.198Z,100630.16
2023-05-13T16:11:55.228Z,100618.50
2023-05-13T16:14:21.366Z,100621.93
2023-05-13T16:16:46.739Z,100622.23
2023-05-13T16:19:12.623Z,100622.56
2023-05-13T16:21:44.778Z,100623.95
2023-05-13T16:24:09.151Z,100628.23
2023-05-13T16:26:33.497Z,100634.56
2023-05-13T16:29:00.836Z,100636.45
2023-05-13T16:31:26.823Z,100643.90
2023-05-13T16:33:53.167Z,100646.32
2023-05-13T16:36:18.514Z,100644.76
2023-05-13T16:38:43.760Z,100644.78
2023-05-13T16:41:07.946Z,100646.47
2023-05-13T16:43:40.968Z,100645.80
2023-05-13T16:44:51.701Z,100650.23
2023-05-13T16:47:18.553Z,100647.68
2023-05-13T16:49:44.897Z,100642.36
2023-05-13T16:52:08.947Z,100643.41
2023-05-13T16:54:57.792Z,100642.38
2023-05-13T16:57:22.533Z,100643.55
2023-05-13T16:59:56.892Z,100643.38
2023-05-13T17:02:32.374Z,100648.86
2023-05-13T17:04:57.646Z,100644.23
2023-05-13T17:07:25.036Z,100646.92
2023-05-13T17:09:48.729Z,100648.28
2023-05-13T17:12:16.572Z,100657.53
2023-05-13T17:14:41.322Z,100648.80
2023-05-13T17:17:08.258Z,100654.63
2023-05-13T17:19:32.072Z,100665.74
2023-05-13T17:21:58.796Z,100659.91
2023-05-13T17:24:22.760Z,100661.27
2023-05-13T17:26:47.067Z,100670.00
2023-05-13T17:29:11.086Z,100679.22
2023-05-13T17:30:22.929Z,100685.13
2023-05-13T17:32:48.418Z,100679.22
2023-05-13T17:35:12.164Z,100668.89
2023-05-13T17:37:39.217Z,100664.95
2023-05-13T17:40:06.141Z,100670.38
2023-05-13T17:42:32.405Z,100676.36
2023-05-13T17:45:03.248Z,100677.78
2023-05-13T17:47:27.533Z,100675.22
2023-05-13T17:49:53.217Z,100677.41
2023-05-13T17:52:18.803Z,100680.02
2023-05-13T17:53:27.501Z,100688.88
2023-05-13T17:55:53.244Z,100687.38
2023-05-13T17:58:16.956Z,100687.20
2023-05-13T18:00:43.811Z,100696.53
2023-05-13T18:03:08.981Z,100693.70
2023-05-13T18:05:34.884Z,100697.31
2023-05-13T18:08:00.300Z,100700.38
2023-05-13T18:10:27.745Z,100701.22
2023-05-13T18:12:52.960Z,100699.88
2023-05-13T18:15:19.211Z,100692.01
2023-05-13T18:17:46.239Z,100697.31
2023-05-13T18:20:11.723Z,100696.32
2023-05-13T18:22:38.193Z,100702.72
2023-05-13T18:25:04.367Z,100702.22
2023-05-13T18:27:31.076Z,100696.75
2023-05-13T18:29:59.371Z,100694.52
2023-05-13T18:32:23.629Z,100698.75
2023-05-13T18:34:49.404Z,100700.94
2023-05-13T18:37:18.874Z,100695.86
2023-05-13T18:39:45.400Z,100697.41
2023-05-13T18:40:55.303Z,100703.84
2023-05-13T18:43:21.629Z,100700.77
2023-05-13T18:44:31.249Z,100705.50
2023-05-13T18:46:57.884Z,100702.33
2023-05-13T18:49:24.884Z,100698.59
2023-05-13T18:51:49.067Z,100696.02
2023-05-13T18:54:13.806Z,100691.41
2023-05-13T18:56:37.882Z,100693.59
2023-05-13T18:59:01.710Z,100690.34
2023-05-13T19:01:28.194Z,100687.39
2023-05-13T19:03:56.358Z,100689.73
2023-05-13T19:06:22.481Z,100684.93
2023-05-13T19:07:31.161Z,100695.22
2023-05-13T19:09:55.531Z,100690.85
2023-05-13T19:12:21.040Z,100686.02
2023-05-13T19:14:45.010Z,100683.44
2023-05-13T19:15:55.567Z,100699.08
2023-05-13T19:18:20.690Z,100684.45
2023-05-13T19:20:46.690Z,100682.77
2023-05-13T19:21:56.454Z,100692.74
2023-05-13T19:23:05.249Z,100689.33
2023-05-13T19:25:31.336Z,100683.48
2023-05-13T19:27:56.575Z,100692.16
2023-05-13T19:29:05.892Z,100701.76
2023-05-13T19:30:15.771Z,100695.98
2023-05-13T19:32:41.268Z,100693.06
2023-05-13T19:33:50.864Z,100691.11
2023-05-13T19:36:14.749Z,100698.04
2023-05-13T19:37:24.273Z,100691.11
2023-05-13T19:39:48.295Z,100679.91
2023-05-13T19:42:12.032Z,100684.58
2023-05-13T19:44:38.276Z,100686.70
2023-05-13T19:47:03.407Z,100680.69
2023-05-13T19:49:48.834Z,100679.84
2023-05-13T19:52:13.528Z,100684.27
2023-05-13T19:54:37.070Z,100677.80
2023-05-13T19:57:01.718Z,100682.94
2023-05-13T19:59:27.182Z,100679.20
2023-05-13T20:01:52.576Z,100677.41
2023-05-13T20:04:16.686Z,100677.65
2023-05-13T20:06:45.169Z,100679.61
2023-05-13T20:09:11.407Z,100669.78
2023-05-13T20:11:38.246Z,100675.55
2023-05-13T20:14:28.203Z,100662.44
2023-05-13T20:16:54.096Z,100664.01
2023-05-13T20:19:18.257Z,100668.45
2023-05-13T20:21:44.020Z,100659.19
2023-05-13T20:24:09.636Z,100659.66
2023-05-13T20:26:35.472Z,100664.84
2023-05-13T20:29:01.620Z,100664.44
2023-05-13T20:31:27.998Z,100661.88
2023-05-13T20:33:54.117Z,100667.48
2023-05-13T20:36:19.166Z,100671.63
2023-05-13T20:38:43.873Z,100672.74
2023-05-13T20:41:09.260Z,100663.72
2023-05-13T20:43:37.150Z,100666.70
2023-05-13T20:46:02.787Z,100667.17
2023-05-13T20:48:29.638Z,100668.33
2023-05-13T20:51:04.875Z,100673.54
2023-05-13T20:53:28.610Z,100675.23
2023-05-13T20:55:53.783Z,100676.60
2023-05-13T20:57:04.181Z,100676.55
2023-05-13T20:58:13.863Z,100679.73
2023-05-13T20:59:23.787Z,100677.16
2023-05-13T21:00:33.121Z,100682.89
2023-05-13T21:03:01.112Z,100678.01
2023-05-13T21:04:10.765Z,100687.38
2023-05-13T21:06:35.778Z,100679.51
2023-05-13T21:07:44.340Z,100679.66
2023-05-13T21:08:54.230Z,100681.23
2023-05-13T21:11:19.390Z,100680.36
2023-05-13T21:13:44.192Z,100677.09
2023-05-13T21:16:33.368Z,100667.84
2023-05-13T21:17:43.060Z,100676.63
2023-05-13T21:20:08.012Z,100667.52
2023-05-13T21:22:32.536Z,100670.20
2023-05-13T21:24:59.477Z,100675.45
2023-05-13T21:26:09.161Z,100666.44
2023-05-13T21:28:33.049Z,100663.72
2023-05-13T21:30:56.863Z,100662.72
2023-05-13T21:33:21.183Z,100660.99
2023-05-13T21:35:44.983Z,100658.04
2023-05-13T21:38:12.251Z,100659.73
2023-05-13T21:40:35.685Z,100656.31
2023-05-13T21:43:00.248Z,100652.97
2023-05-13T21:45:24.682Z,100651.97
2023-05-13T21:47:48.872Z,100650.81
2023-05-13T21:50:17.551Z,100656.83
2023-05-13T21:51:27.330Z,100653.84
2023-05-13T21:52:41.974Z,100653.53
2023-05-13T21:53:50.530Z,100649.50
2023-05-13T21:56:14.163Z,100649.53
2023-05-13T21:57:24.452Z,100656.77
2023-05-13T21:58:34.875Z,100653.02
2023-05-13T21:59:45.360Z,100651.16
2023-05-13T22:02:09.784Z,100645.48
2023-05-13T22:03:19.433Z,100654.73
2023-05-13T22:05:43.616Z,100646.34
2023-05-13T22:06:53.283Z,100641.83
2023-05-13T22:09:16.869Z,100647.06
2023-05-13T22:10:27.371Z,100648.13
2023-05-13T22:12:53.125Z,100641.92
2023-05-13T22:15:16.826Z,100647.81
2023-05-13T22:16:26.726Z,100646.15
2023-05-13T22:18:51.515Z,100649.12
2023-05-13T22:21:15.637Z,100644.83
2023-05-13T22:23:40.661Z,100641.73
2023-05-13T22:26:05.897Z,100645.77
2023-05-13T22:27:15.626Z,100642.69
2023-05-13T22:29:39.286Z,100639.06
2023-05-13T22:32:11.008Z,100643.80
2023-05-13T22:34:35.432Z,100641.06
2023-05-13T22:37:03.588Z,100641.38
2023-05-13T22:38:23.662Z,100641.86
2023-05-13T22:40:48.236Z,100640.33
2023-05-13T22:43:14.833Z,100642.89
2023-05-13T22:45:39.331Z,100642.63
2023-05-13T22:46:49.306Z,100640.07
2023-05-13T22:49:15.155Z,100632.20
2023-05-13T22:50:24.573Z,100639.50
2023-05-13T22:52:48.746Z,100637.92
2023-05-13T22:53:57.994Z,100644.68
2023-05-13T22:56:23.616Z,100631.33
2023-05-13T22:59:09.357Z,100637.42
2023-05-13T23:01:35.190Z,100633.43
2023-05-13T23:04:07.181Z,100639.30
2023-05-13T23:06:32.367Z,100636.87
2023-05-13T23:07:43.706Z,100643.19
2023-05-13T23:10:08.631Z,100634.45
2023-05-13T23:11:18.262Z,100639.05
2023-05-13T23:13:44.925Z,100629.02
2023-05-13T23:14:54.300Z,100644.34
2023-05-13T23:17:20.658Z,100634.30
2023-05-13T23:19:45.318Z,100634.16
2023-05-13T23:22:11.304Z,100637.57
2023-05-13T23:23:19.885Z,100636.75
2023-05-13T23:24:28.520Z,100634.03
2023-05-13T23:25:38.113Z,100637.60
2023-05-13T23:28:26.665Z,100634.16
2023-05-13T23:30:54.522Z,100629.86
2023-05-13T23:33:21.402Z,100635.00
2023-05-13T23:34:30.998Z,100643.19
2023-05-13T23:36:57.914Z,100640.59
2023-05-13T23:39:23.355Z,100641.33
2023-05-13T23:40:31.825Z,100641.50
2023-05-13T23:41:41.365Z,100650.36
2023-05-13T23:44:05.932Z,100643.90
2023-05-13T23:45:15.782Z,100639.63
2023-05-13T23:46:25.642Z,100647.64
2023-05-13T23:48:49.735Z,100651.19
2023-05-13T23:51:15.540Z,100645.34
2023-05-13T23:53:41.043Z,100650.48
2023-05-13T23:54:51.916Z,100652.39
2023-05-13T23:56:01.623Z,100651.94
2023-05-13T23:58:26.566Z,100647.73
